PWSweather.com
Personal Weather Stations
Station Observations
HAJERN
Hajeren, HvittingfossNO 3647

HajerenHvittingfossNO 3647

Lat: 59.54314324, Lon: 9.95778703

Elevation: 1320

Station Type: Fine Ofset WS 1080

Latest ConditionsUpdated 7:00:06 PM GMT+01:01 Tuesday, Nov 12, 2019
Currently Today's Max Today's Min Today's Average
Temperature 32.4°F0.2°C 32.4°F0.2°C 23.7°F-4.6°C 28.8°F-1.8°C
Dew Point 32.1°F0.1°C 32.1°F0.1°C 23.5°F-4.7°C 28.5°F-1.9°C
Winds Calm Calm 3.5 mph -5.6 kmh - - 1.1 mph 1.8 kmh
Wind Gusts -- 6.0 mph9.7 kmh - -
Humidity 99% 99% 99% 99%
Pressure 28.64 in969.9 mb 28.82 in976.0 mb 28.63 in969.5 mb -
Hour Temp Dew Point Humidity Winds Wind Gusts Pressure Precip Precip Rate Daily Precip Total
07:00 PM 32.4°F0.2°C 32.1°F0.1°C 99% Calm Calm -- 28.64 in969.9 mb 0.00 in0.0 mm 0.00 in0.0 mm 0.00 in0.0 mm
06:30 PM 32.2°F0.1°C 31.9°F-0.1°C 99% Calm Calm -- 28.64 in969.9 mb 0.00 in0.0 mm 0.00 in0.0 mm 0.00 in0.0 mm
06:00 PM 32.2°F0.1°C 31.9°F-0.1°C 99% Calm Calm -- 28.64 in969.9 mb 0.00 in0.0 mm 0.00 in0.0 mm 0.00 in0.0 mm
05:30 PM 31.8°F-0.1°C 31.6°F-0.2°C 99% Calm Calm -- 28.63 in969.5 mb 0.00 in0.0 mm 0.00 in0.0 mm 0.00 in0.0 mm
05:00 PM 31.5°F-0.3°C 31.2°F-0.4°C 99% Calm Calm -- 28.64 in969.9 mb 0.00 in0.0 mm 0.00 in0.0 mm 0.00 in0.0 mm
04:30 PM 31.3°F-0.4°C 31.0°F-0.6°C 99% Calm Calm -- 28.63 in969.5 mb 0.00 in0.0 mm 0.00 in0.0 mm 0.00 in0.0 mm
04:00 PM 31.3°F-0.4°C 31.0°F-0.6°C 99% Calm Calm -- 28.63 in969.5 mb 0.00 in0.0 mm 0.00 in0.0 mm 0.00 in0.0 mm
03:30 PM 31.5°F-0.3°C 31.2°F-0.4°C 99% Calm Calm -- 28.64 in969.9 mb 0.00 in0.0 mm 0.00 in0.0 mm 0.00 in0.0 mm
03:00 PM 31.8°F-0.1°C 31.6°F-0.2°C 99% Calm Calm -- 28.63 in969.5 mb 0.00 in0.0 mm 0.00 in0.0 mm 0.00 in0.0 mm
02:30 PM 31.8°F-0.1°C 31.6°F-0.2°C 99% Calm Calm -- 28.63 in969.5 mb 0.00 in0.0 mm 0.00 in0.0 mm 0.00 in0.0 mm
02:00 PM 32.0°F0.0°C 31.8°F-0.1°C 99% Calm Calm -- 28.63 in969.5 mb 0.00 in0.0 mm 0.00 in0.0 mm 0.00 in0.0 mm
01:30 PM 32.2°F0.1°C 31.9°F-0.1°C 99% Calm Calm -- 28.64 in969.9 mb 0.00 in0.0 mm 0.00 in0.0 mm 0.00 in0.0 mm
01:00 PM 32.2°F0.1°C 31.9°F-0.1°C 99% 1.4 mph E2.3 kmh E 3.1 mph5.0 kmh 28.64 in969.9 mb 0.00 in0.0 mm 0.00 in0.0 mm 0.00 in0.0 mm
12:30 PM 32.2°F0.1°C 31.9°F-0.1°C 99% 1.3 mph NE2.1 kmh NE 3.1 mph5.0 kmh 28.66 in970.5 mb 0.00 in0.0 mm 0.00 in0.0 mm 0.00 in0.0 mm
12:00 PM 32.2°F0.1°C 31.9°F-0.1°C 99% 0.6 mph ENE1.0 kmh ENE 3.1 mph5.0 kmh 28.66 in970.5 mb 0.00 in0.0 mm 0.00 in0.0 mm 0.00 in0.0 mm
11:30 AM 32.2°F0.1°C 31.9°F-0.1°C 99% 0.3 mph NW0.5 kmh NW 3.1 mph5.0 kmh 28.67 in970.9 mb 0.00 in0.0 mm 0.00 in0.0 mm 0.00 in0.0 mm
11:00 AM 32.2°F0.1°C 31.9°F-0.1°C 99% 2.3 mph NNE3.7 kmh NNE 4.5 mph7.2 kmh 28.69 in971.6 mb 0.00 in0.0 mm 0.00 in0.0 mm 0.00 in0.0 mm
10:30 AM 31.6°F-0.2°C 31.4°F-0.3°C 99% 2.5 mph NE4.0 kmh NE 6.0 mph9.7 kmh 28.69 in971.6 mb 0.00 in0.0 mm 0.00 in0.0 mm 0.00 in0.0 mm
10:00 AM 31.1°F-0.5°C 30.9°F-0.6°C 99% 1.4 mph NNW2.3 kmh NNW 4.5 mph7.2 kmh 28.70 in971.9 mb 0.00 in0.0 mm 0.00 in0.0 mm 0.00 in0.0 mm
09:30 AM 30.4°F-0.9°C 30.1°F-1.1°C 99% 1.5 mph N2.4 kmh N 3.8 mph6.1 kmh 28.70 in971.9 mb 0.00 in0.0 mm 0.00 in0.0 mm 0.00 in0.0 mm
09:00 AM 29.8°F-1.2°C 29.6°F-1.3°C 99% 2.0 mph NNE3.2 kmh NNE 3.8 mph6.1 kmh 28.71 in972.2 mb 0.00 in0.0 mm 0.00 in0.0 mm 0.00 in0.0 mm
08:30 AM 28.9°F-1.7°C 28.7°F-1.8°C 99% 0.5 mph NNW0.8 kmh NNW 3.8 mph6.1 kmh 28.71 in972.2 mb 0.00 in0.0 mm 0.00 in0.0 mm 0.00 in0.0 mm
08:00 AM 28.0°F-2.2°C 27.8°F-2.3°C 99% Calm Calm -- 28.71 in972.2 mb 0.00 in0.0 mm 0.00 in0.0 mm 0.00 in0.0 mm
07:30 AM 27.9°F-2.3°C 27.6°F-2.4°C 99% 0.4 mph NNW0.6 kmh NNW 2.2 mph3.5 kmh 28.73 in972.9 mb 0.00 in0.0 mm 0.00 in0.0 mm 0.00 in0.0 mm
07:00 AM 27.5°F-2.5°C 27.3°F-2.6°C 99% 0.2 mph NNW0.3 kmh NNW 0.7 mph1.1 kmh 28.73 in972.9 mb 0.00 in0.0 mm 0.00 in0.0 mm 0.00 in0.0 mm
06:30 AM 27.0°F-2.8°C 26.7°F-2.9°C 99% 1.0 mph NE1.6 kmh NE 4.5 mph7.2 kmh 28.74 in973.2 mb 0.00 in0.0 mm 0.00 in0.0 mm 0.00 in0.0 mm
06:00 AM 25.9°F-3.4°C 25.7°F-3.5°C 99% 1.1 mph NE1.8 kmh NE 3.8 mph6.1 kmh 28.75 in973.6 mb 0.00 in0.0 mm 0.00 in0.0 mm 0.00 in0.0 mm
05:30 AM 25.2°F-3.8°C 24.9°F-3.9°C 99% 0.1 mph NE0.2 kmh NE 2.2 mph3.5 kmh 28.75 in973.6 mb 0.00 in0.0 mm 0.00 in0.0 mm 0.00 in0.0 mm
05:00 AM 25.0°F-3.9°C 24.8°F-4.0°C 99% 2.2 mph NNE3.5 kmh NNE 4.5 mph7.2 kmh 28.76 in973.9 mb 0.00 in0.0 mm 0.00 in0.0 mm 0.00 in0.0 mm
04:30 AM 25.0°F-3.9°C 24.8°F-4.0°C 99% 1.7 mph N2.7 kmh N 3.8 mph6.1 kmh 28.77 in974.3 mb 0.00 in0.0 mm 0.00 in0.0 mm 0.00 in0.0 mm
04:00 AM 24.8°F-4.0°C 24.6°F-4.1°C 99% 2.3 mph N3.7 kmh N 4.5 mph7.2 kmh 28.77 in974.3 mb 0.00 in0.0 mm 0.00 in0.0 mm 0.00 in0.0 mm
03:30 AM 24.3°F-4.3°C 24.0°F-4.4°C 99% 1.3 mph NE2.1 kmh NE 3.1 mph5.0 kmh 28.78 in974.6 mb 0.00 in0.0 mm 0.00 in0.0 mm 0.00 in0.0 mm
03:00 AM 24.1°F-4.4°C 23.9°F-4.5°C 99% 1.1 mph NE1.8 kmh NE 4.5 mph7.2 kmh 28.79 in974.9 mb 0.00 in0.0 mm 0.00 in0.0 mm 0.00 in0.0 mm
02:30 AM 24.1°F-4.4°C 23.9°F-4.5°C 99% 1.5 mph N2.4 kmh N 3.8 mph6.1 kmh 28.80 in975.3 mb 0.00 in0.0 mm 0.00 in0.0 mm 0.00 in0.0 mm
02:00 AM 23.7°F-4.6°C 23.5°F-4.7°C 99% 3.5 mph N5.6 kmh N 5.4 mph8.7 kmh 28.80 in975.3 mb 0.00 in0.0 mm 0.00 in0.0 mm 0.00 in0.0 mm
01:30 AM 23.7°F-4.6°C 23.5°F-4.7°C 99% 3.4 mph N5.5 kmh N 5.4 mph8.7 kmh 28.81 in975.6 mb 0.00 in0.0 mm 0.00 in0.0 mm 0.00 in0.0 mm
01:00 AM 23.9°F-4.5°C 23.7°F-4.6°C 99% 3.2 mph N5.1 kmh N 5.4 mph8.7 kmh 28.82 in976.0 mb 0.00 in0.0 mm 0.00 in0.0 mm 0.00 in0.0 mm
12:30 AM 23.9°F-4.5°C 23.7°F-4.6°C 99% 3.3 mph N5.3 kmh N 5.4 mph8.7 kmh 28.81 in975.6 mb 0.00 in0.0 mm 0.00 in0.0 mm 0.00 in0.0 mm
12:00 AM 23.9°F-4.5°C 23.7°F-4.6°C 99% 3.1 mph N5.0 kmh N 6.0 mph9.7 kmh 28.82 in976.0 mb 0.00 in0.0 mm 0.00 in0.0 mm 0.00 in0.0 mm